Time;durP1;ratioP1;P1;durP2;ratioP2;P2;SDS_P1;SDS_P2;PMS_P1;PMS_P2;Temp;Humidity;BMP_temperature;BMP_pressure;BME280_temperature;BME280_humidity;BME280_pressure;Samples;Min_cycle;Max_cycle;Signal;HPM_P1;HPM_P2
2023/02/19 00:00:26;;;;;;;;;;;10.00;99.90;;;;;;4900018;29;19928;-63
2023/02/19 00:02:58;;;;;;;;;;;10.00;99.90;;;;;;4899450;29;19927;-63
2023/02/19 00:05:30;;;;;;;;;;;10.00;99.90;;;;;;4902283;29;19950;-63
2023/02/19 00:08:02;;;;;;;;;;;10.00;99.90;;;;;;4902713;29;19931;-63
2023/02/19 00:10:34;;;;;;;;;;;9.90;99.90;;;;;;4900762;29;19931;-63
2023/02/19 00:13:06;;;;;;;;;;;10.00;99.90;;;;;;4908764;29;20420;-63
2023/02/19 00:15:38;;;;;;;;;;;10.00;99.90;;;;;;4899461;29;19956;-64
2023/02/19 00:18:09;;;;;;;;;;;10.00;99.90;;;;;;4902479;29;19927;-64
2023/02/19 00:20:41;;;;;;;;;;;10.00;99.90;;;;;;4904145;29;20372;-63
2023/02/19 00:23:13;;;;;;;;;;;10.00;99.90;;;;;;4909812;29;19933;-63
2023/02/19 00:25:40;;;;;;;;;;;9.90;99.90;;;;;;4907252;29;20385;-64
2023/02/19 00:28:12;;;;;;;;;;;9.90;99.90;;;;;;4911236;29;19927;-63
2023/02/19 00:30:44;;;;;;;;;;;9.90;99.90;;;;;;4908709;29;19927;-63
2023/02/19 00:33:15;;;;;;;;;;;9.90;99.90;;;;;;4904805;29;19942;-63
2023/02/19 00:35:42;;;;;;;;;;;9.90;99.90;;;;;;4906045;29;19934;-63
2023/02/19 00:38:14;;;;;;;;;;;9.90;99.90;;;;;;4899501;29;20106;-63
2023/02/19 00:40:45;;;;;;;;;;;9.90;99.90;;;;;;4915219;29;19927;-63
2023/02/19 00:43:17;;;;;;;;;;;9.90;99.90;;;;;;4905708;29;19935;-63
2023/02/19 00:45:49;;;;;;;;;;;9.90;99.90;;;;;;4900425;29;20377;-63
2023/02/19 00:48:21;;;;;;;;;;;9.90;99.90;;;;;;4895482;29;19955;-63
2023/02/19 00:50:53;;;;;;;;;;;9.90;99.90;;;;;;4889831;29;20495;-63
2023/02/19 00:53:25;;;;;;;;;;;9.90;99.90;;;;;;4900098;29;19928;-63
2023/02/19 00:55:57;;;;;;;;;;;9.90;99.90;;;;;;4903131;29;20140;-63
2023/02/19 00:58:29;;;;;;;;;;;9.90;99.90;;;;;;4905146;29;19962;-63
2023/02/19 01:01:01;;;;;;;;;;;9.90;99.90;;;;;;4896182;29;19954;-63
2023/02/19 01:03:33;;;;;;;;;;;9.90;99.90;;;;;;4902612;29;19927;-63
2023/02/19 01:06:06;;;;;;;;;;;9.90;99.90;;;;;;4904213;29;20381;-63
2023/02/19 01:08:37;;;;;;;;;;;9.90;99.90;;;;;;4904591;29;19983;-63
2023/02/19 01:11:10;;;;;;;;;;;9.90;99.90;;;;;;4896821;29;20409;-63
2023/02/19 01:13:42;;;;;;;;;;;9.90;99.90;;;;;;4905567;29;19935;-63
2023/02/19 01:16:22;;;;;;;;;;;9.90;99.90;;;;;;4897690;29;19931;-63
2023/02/19 01:18:55;;;;;;;;;;;9.90;99.90;;;;;;4903255;29;20379;-63
2023/02/19 01:21:27;;;;;;;;;;;9.90;99.90;;;;;;4908634;29;19940;-63
2023/02/19 01:23:59;;;;;;;;;;;9.90;99.90;;;;;;4885791;29;19928;-63
2023/02/19 01:26:31;;;;;;;;;;;9.90;99.90;;;;;;4903481;29;19932;-63
2023/02/19 01:29:03;;;;;;;;;;;9.90;99.90;;;;;;4887640;29;20570;-63
2023/02/19 01:31:35;;;;;;;;;;;9.90;99.90;;;;;;4908037;29;20300;-63
2023/02/19 01:34:08;;;;;;;;;;;9.90;99.90;;;;;;4908655;29;19936;-63
2023/02/19 01:36:40;;;;;;;;;;;9.90;99.90;;;;;;4908943;29;20010;-63
2023/02/19 01:39:12;;;;;;;;;;;9.90;99.90;;;;;;4909419;29;19936;-63
2023/02/19 01:41:44;;;;;;;;;;;9.90;99.90;;;;;;4902106;29;19938;-63
2023/02/19 01:44:17;;;;;;;;;;;9.80;99.90;;;;;;4903786;29;19951;-63
2023/02/19 01:46:50;;;;;;;;;;;9.80;99.90;;;;;;4898088;29;19927;-63
2023/02/19 01:49:47;;;;;;;;;;;9.80;99.90;;;;;;4920076;29;19954;-63
2023/02/19 01:52:30;;;;;;;;;;;9.80;99.90;;;;;;4896223;29;19927;-64
2023/02/19 01:54:57;;;;;;;;;;;9.80;99.90;;;;;;4900413;29;19932;-63
2023/02/19 01:57:26;;;;;;;;;;;9.80;99.90;;;;;;4896290;29;20404;-63
2023/02/19 02:00:01;;;;;;;;;;;9.80;99.90;;;;;;4917242;29;19931;-63
2023/02/19 02:02:41;;;;;;;;;;;9.80;99.90;;;;;;4896443;29;20014;-63
2023/02/19 02:05:22;;;;;;;;;;;9.80;99.90;;;;;;4897640;29;19934;-63
2023/02/19 02:10:40;;;;;;;;;;;9.80;99.90;;;;;;4912445;29;19975;-63
2023/02/19 02:13:11;;;;;;;;;;;9.80;99.90;;;;;;4904552;29;20353;-63
2023/02/19 02:16:06;;;;;;;;;;;9.80;99.90;;;;;;4903322;29;19987;-63
2023/02/19 02:18:53;;;;;;;;;;;9.80;99.90;;;;;;4906680;29;19997;-63
2023/02/19 02:21:34;;;;;;;;;;;9.80;99.90;;;;;;4904972;29;19991;-63
2023/02/19 02:24:11;;;;;;;;;;;9.70;99.90;;;;;;4911329;29;19931;-63
2023/02/19 02:26:46;;;;;;;;;;;9.70;99.90;;;;;;4912375;29;19931;-63
2023/02/19 02:29:23;;;;;;;;;;;9.70;99.90;;;;;;4889488;29;20431;-63
2023/02/19 02:32:04;;;;;;;;;;;9.70;99.90;;;;;;4900921;29;19935;-63
2023/02/19 02:34:38;;;;;;;;;;;9.70;99.90;;;;;;4900474;29;20408;-63
2023/02/19 02:37:11;;;;;;;;;;;9.60;99.90;;;;;;4903039;29;19934;-64
2023/02/19 02:39:44;;;;;;;;;;;9.60;99.90;;;;;;4899074;29;19927;-63
2023/02/19 02:42:28;;;;;;;;;;;9.60;99.90;;;;;;4897087;29;19969;-63
2023/02/19 02:45:35;;;;;;;;;;;9.60;99.90;;;;;;4902464;29;20312;-64
2023/02/19 02:48:31;;;;;;;;;;;9.50;99.90;;;;;;4899077;29;20594;-63
2023/02/19 02:51:18;;;;;;;;;;;9.50;99.90;;;;;;4904913;29;19951;-63
2023/02/19 02:57:08;;;;;;;;;;;9.50;99.90;;;;;;4904050;29;19931;-64
2023/02/19 02:59:47;;;;;;;;;;;9.60;99.90;;;;;;4906519;29;19931;-64
2023/02/19 03:02:23;;;;;;;;;;;9.50;99.90;;;;;;4908327;29;19932;-63
2023/02/19 03:07:57;;;;;;;;;;;9.40;99.90;;;;;;4891978;29;19934;-64
2023/02/19 03:10:38;;;;;;;;;;;9.30;99.90;;;;;;4881872;29;20022;-64
2023/02/19 03:21:41;;;;;;;;;;;8.90;99.90;;;;;;4903366;29;19931;-64
2023/02/19 03:27:01;;;;;;;;;;;8.70;99.90;;;;;;4897911;29;19927;-64
2023/02/19 03:29:39;;;;;;;;;;;8.70;99.90;;;;;;4891257;29;20536;-64
2023/02/19 03:32:13;;;;;;;;;;;8.60;99.90;;;;;;4885317;29;19979;-64
2023/02/19 03:34:51;;;;;;;;;;;8.50;99.90;;;;;;4905108;29;19983;-64
2023/02/19 03:37:28;;;;;;;;;;;8.50;99.90;;;;;;4901964;29;19928;-64
2023/02/19 03:39:57;;;;;;;;;;;8.50;99.90;;;;;;4895588;29;19947;-64
2023/02/19 03:42:40;;;;;;;;;;;8.50;99.90;;;;;;4899781;29;19934;-64
2023/02/19 03:45:20;;;;;;;;;;;8.50;99.90;;;;;;4907071;29;20034;-64
2023/02/19 03:47:58;;;;;;;;;;;8.40;99.90;;;;;;4900683;29;20003;-64
2023/02/19 03:50:49;;;;;;;;;;;8.40;99.90;;;;;;4901518;29;20400;-64
2023/02/19 03:53:27;;;;;;;;;;;8.40;99.90;;;;;;4916014;29;20430;-64
2023/02/19 03:56:02;;;;;;;;;;;8.40;99.90;;;;;;4915062;29;19927;-64
2023/02/19 03:58:47;;;;;;;;;;;8.30;99.90;;;;;;4913772;29;19982;-64
2023/02/19 04:01:24;;;;;;;;;;;8.30;99.90;;;;;;4889702;29;19934;-64
2023/02/19 04:04:12;;;;;;;;;;;8.30;99.90;;;;;;4899240;29;19927;-63
2023/02/19 04:06:45;;;;;;;;;;;8.30;99.90;;;;;;4896366;29;20410;-64
2023/02/19 04:09:18;;;;;;;;;;;8.20;99.90;;;;;;4909934;29;19937;-64
2023/02/19 04:11:58;;;;;;;;;;;8.20;99.90;;;;;;4883437;29;19951;-63
2023/02/19 04:14:48;;;;;;;;;;;8.20;99.90;;;;;;4903771;29;19995;-63
2023/02/19 04:17:25;;;;;;;;;;;8.20;99.90;;;;;;4910043;29;19988;-63
2023/02/19 04:19:56;;;;;;;;;;;8.20;99.90;;;;;;4900453;29;19931;-64
2023/02/19 04:22:23;;;;;;;;;;;8.20;99.90;;;;;;4904970;29;19939;-63
2023/02/19 04:24:55;;;;;;;;;;;8.20;99.90;;;;;;4912468;29;19931;-63
2023/02/19 04:27:27;;;;;;;;;;;8.20;99.90;;;;;;4900492;29;19935;-63
2023/02/19 04:29:58;;;;;;;;;;;8.10;99.90;;;;;;4911871;29;19934;-64
2023/02/19 04:32:25;;;;;;;;;;;8.10;99.90;;;;;;4905843;29;20397;-63
2023/02/19 04:34:52;;;;;;;;;;;8.10;99.90;;;;;;4901045;29;19927;-63
2023/02/19 04:37:24;;;;;;;;;;;8.10;99.90;;;;;;4892733;29;20447;-63
2023/02/19 04:39:55;;;;;;;;;;;8.10;99.90;;;;;;4904136;29;19931;-63
2023/02/19 04:42:27;;;;;;;;;;;8.10;99.90;;;;;;4900614;29;19931;-63
2023/02/19 04:44:59;;;;;;;;;;;8.10;99.90;;;;;;4911961;29;19955;-63
2023/02/19 04:47:31;;;;;;;;;;;8.10;99.90;;;;;;4903037;29;19931;-63
2023/02/19 04:50:03;;;;;;;;;;;8.10;99.90;;;;;;4897940;29;19931;-63
2023/02/19 04:52:34;;;;;;;;;;;8.20;99.90;;;;;;4899324;29;19939;-64
2023/02/19 04:55:06;;;;;;;;;;;8.20;99.90;;;;;;4908734;29;19927;-63
2023/02/19 04:57:38;;;;;;;;;;;8.20;99.90;;;;;;4899786;29;19927;-64
2023/02/19 05:00:10;;;;;;;;;;;8.20;99.90;;;;;;4894210;29;19984;-63
2023/02/19 05:02:41;;;;;;;;;;;8.20;99.90;;;;;;4903857;29;19927;-63
2023/02/19 05:05:13;;;;;;;;;;;8.20;99.90;;;;;;4908634;29;19931;-63
2023/02/19 05:07:45;;;;;;;;;;;8.20;99.90;;;;;;4911145;29;19958;-63
2023/02/19 05:10:16;;;;;;;;;;;8.20;99.90;;;;;;4902393;29;20397;-63
2023/02/19 05:12:48;;;;;;;;;;;8.20;99.90;;;;;;4900341;29;19931;-63
2023/02/19 05:15:15;;;;;;;;;;;8.20;99.90;;;;;;4904058;29;19939;-63
2023/02/19 05:17:46;;;;;;;;;;;8.20;99.90;;;;;;4906272;29;19927;-63
2023/02/19 05:20:18;;;;;;;;;;;8.20;99.90;;;;;;4900300;29;19982;-63
2023/02/19 05:22:50;;;;;;;;;;;8.20;99.90;;;;;;4907758;29;19936;-63
2023/02/19 05:25:22;;;;;;;;;;;8.20;99.90;;;;;;4915453;29;19927;-63
2023/02/19 05:28:15;;;;;;;;;;;8.20;99.90;;;;;;4914596;29;19927;-63
2023/02/19 05:30:49;;;;;;;;;;;8.20;99.90;;;;;;4911587;29;20389;-63
2023/02/19 05:33:22;;;;;;;;;;;8.20;99.90;;;;;;4904237;29;19931;-63
2023/02/19 05:35:54;;;;;;;;;;;8.20;99.90;;;;;;4898830;29;19935;-63
2023/02/19 05:38:26;;;;;;;;;;;8.20;99.90;;;;;;4901826;29;19935;-63
2023/02/19 05:41:17;;;;;;;;;;;8.20;99.90;;;;;;4903587;29;19927;-63
2023/02/19 05:43:49;;;;;;;;;;;8.20;99.90;;;;;;4896650;29;19956;-63
2023/02/19 05:46:22;;;;;;;;;;;8.20;99.90;;;;;;4905238;29;19935;-63
2023/02/19 05:48:50;;;;;;;;;;;8.20;99.90;;;;;;4902868;29;19927;-63
2023/02/19 05:51:18;;;;;;;;;;;8.20;99.90;;;;;;4899486;29;20409;-63
2023/02/19 05:53:50;;;;;;;;;;;8.20;99.90;;;;;;4902789;29;19931;-63
2023/02/19 05:56:24;;;;;;;;;;;8.20;99.90;;;;;;4905275;29;20408;-63
2023/02/19 05:58:56;;;;;;;;;;;8.20;99.90;;;;;;4910003;29;19931;-64
2023/02/19 06:01:24;;;;;;;;;;;8.20;99.90;;;;;;4907222;29;19939;-66
2023/02/19 06:03:51;;;;;;;;;;;8.20;99.90;;;;;;4892765;29;19927;-63
2023/02/19 06:06:23;;;;;;;;;;;8.20;99.90;;;;;;4909525;29;20009;-63
2023/02/19 06:08:55;;;;;;;;;;;8.20;99.90;;;;;;4909863;29;20333;-63
2023/02/19 06:11:27;;;;;;;;;;;8.20;99.90;;;;;;4903046;29;19935;-65
2023/02/19 06:13:59;;;;;;;;;;;8.20;99.90;;;;;;4896491;29;20385;-63
2023/02/19 06:16:32;;;;;;;;;;;8.20;99.90;;;;;;4918504;29;19960;-63
2023/02/19 06:19:04;;;;;;;;;;;8.20;99.90;;;;;;4906689;29;19931;-63
2023/02/19 06:21:36;;;;;;;;;;;8.20;99.90;;;;;;4898377;29;20011;-63
2023/02/19 06:24:08;;;;;;;;;;;8.20;99.90;;;;;;4902865;29;19931;-63
2023/02/19 06:26:40;;;;;;;;;;;8.20;99.90;;;;;;4903470;29;19931;-63
2023/02/19 06:29:11;;;;;;;;;;;8.20;99.90;;;;;;4914815;29;19934;-63
2023/02/19 06:31:43;;;;;;;;;;;8.20;99.90;;;;;;4902003;29;19931;-63
2023/02/19 06:34:15;;;;;;;;;;;8.20;99.90;;;;;;4903478;29;19931;-63
2023/02/19 06:36:47;;;;;;;;;;;8.20;99.90;;;;;;4896607;29;20349;-63
2023/02/19 06:39:19;;;;;;;;;;;8.20;99.90;;;;;;4901349;29;20293;-63
2023/02/19 06:41:53;;;;;;;;;;;8.20;99.90;;;;;;4908547;29;19987;-63
2023/02/19 06:44:25;;;;;;;;;;;8.10;99.90;;;;;;4915126;29;19934;-63
2023/02/19 06:46:57;;;;;;;;;;;8.20;99.90;;;;;;4903286;29;20397;-63
2023/02/19 06:49:29;;;;;;;;;;;8.10;99.90;;;;;;4904048;29;19934;-63
2023/02/19 06:52:02;;;;;;;;;;;8.10;99.90;;;;;;4911136;29;19954;-63
2023/02/19 06:54:34;;;;;;;;;;;8.00;99.90;;;;;;4910550;29;19926;-63
2023/02/19 06:57:06;;;;;;;;;;;8.00;99.90;;;;;;4912982;29;19931;-64
2023/02/19 06:59:39;;;;;;;;;;;7.90;99.90;;;;;;4899039;29;21555;-65
2023/02/19 07:02:12;;;;;;;;;;;7.90;99.90;;;;;;4900921;29;20304;-65
2023/02/19 07:04:43;;;;;;;;;;;7.90;99.90;;;;;;4903188;29;19928;-64
2023/02/19 07:07:15;;;;;;;;;;;7.90;99.90;;;;;;4900426;29;19994;-63
2023/02/19 07:09:47;;;;;;;;;;;7.80;99.90;;;;;;4901245;29;19928;-64
2023/02/19 07:12:18;;;;;;;;;;;7.80;99.90;;;;;;4902139;29;19936;-64
2023/02/19 07:14:45;;;;;;;;;;;7.90;99.90;;;;;;4914035;29;19927;-64
2023/02/19 07:17:16;;;;;;;;;;;7.80;99.90;;;;;;4912961;29;19930;-64
2023/02/19 07:19:48;;;;;;;;;;;7.80;99.90;;;;;;4901715;29;19935;-63
2023/02/19 07:22:20;;;;;;;;;;;7.80;99.90;;;;;;4902679;29;19928;-64
2023/02/19 07:24:52;;;;;;;;;;;7.80;99.90;;;;;;4906464;29;19934;-63
2023/02/19 07:27:24;;;;;;;;;;;7.80;99.90;;;;;;4903784;29;19935;-64
2023/02/19 07:29:56;;;;;;;;;;;7.80;99.90;;;;;;4898219;29;19938;-64
2023/02/19 07:32:27;;;;;;;;;;;7.80;99.90;;;;;;4899564;29;19942;-64
2023/02/19 07:35:00;;;;;;;;;;;7.80;99.90;;;;;;4904685;29;19935;-64
2023/02/19 07:37:31;;;;;;;;;;;7.80;99.90;;;;;;4897664;29;19927;-64
2023/02/19 07:40:03;;;;;;;;;;;7.90;99.90;;;;;;4890904;29;19927;-64
2023/02/19 07:42:35;;;;;;;;;;;7.80;99.90;;;;;;4898078;29;19931;-65
2023/02/19 07:45:06;;;;;;;;;;;7.90;99.90;;;;;;4887934;29;19935;-66
2023/02/19 07:47:38;;;;;;;;;;;7.90;99.90;;;;;;4901290;29;19931;-64
2023/02/19 07:50:10;;;;;;;;;;;7.90;99.90;;;;;;4905776;29;20010;-64
2023/02/19 07:52:42;;;;;;;;;;;8.00;99.90;;;;;;4883787;29;19931;-64
2023/02/19 07:55:14;;;;;;;;;;;8.00;99.90;;;;;;4900471;29;19931;-64
2023/02/19 07:57:46;;;;;;;;;;;8.00;99.90;;;;;;4902095;29;20139;-64
2023/02/19 08:00:18;;;;;;;;;;;8.10;99.90;;;;;;4905397;29;19927;-64
2023/02/19 08:03:00;;;;;;;;;;;8.10;99.90;;;;;;4907534;29;19935;-64
2023/02/19 08:05:35;;;;;;;;;;;8.20;99.90;;;;;;4896136;29;19974;-64
2023/02/19 08:08:12;;;;;;;;;;;8.30;99.90;;;;;;4903810;29;19927;-63
2023/02/19 08:13:35;;;;;;;;;;;8.30;99.90;;;;;;4899744;29;19931;-63
2023/02/19 08:16:07;;;;;;;;;;;8.30;99.90;;;;;;4899809;29;20392;-63
2023/02/19 08:18:39;;;;;;;;;;;8.30;99.90;;;;;;4898854;29;19931;-64
2023/02/19 08:21:11;;;;;;;;;;;8.40;99.90;;;;;;4880383;29;19931;-64
2023/02/19 08:23:38;;;;;;;;;;;8.40;99.90;;;;;;4897625;29;20042;-64
2023/02/19 08:26:10;;;;;;;;;;;8.40;99.90;;;;;;4893148;29;20084;-63
2023/02/19 08:28:42;;;;;;;;;;;8.50;99.90;;;;;;4890319;29;20473;-63
2023/02/19 08:31:14;;;;;;;;;;;8.60;99.90;;;;;;4900294;29;19991;-63
2023/02/19 08:33:41;;;;;;;;;;;8.70;99.90;;;;;;4904713;29;20019;-63
2023/02/19 08:36:15;;;;;;;;;;;8.60;99.90;;;;;;4901283;29;19935;-63
2023/02/19 08:38:48;;;;;;;;;;;8.40;99.90;;;;;;4908606;29;19990;-64
2023/02/19 08:41:16;;;;;;;;;;;8.20;99.90;;;;;;4904486;29;19927;-64
2023/02/19 08:43:48;;;;;;;;;;;8.00;99.90;;;;;;4903467;29;20014;-64
2023/02/19 08:46:21;;;;;;;;;;;7.90;99.90;;;;;;4904491;29;19927;-63
2023/02/19 08:48:53;;;;;;;;;;;7.80;99.90;;;;;;4905963;29;20058;-63
2023/02/19 08:51:25;;;;;;;;;;;7.70;99.90;;;;;;4904961;29;19931;-63
2023/02/19 08:53:54;;;;;;;;;;;7.60;99.90;;;;;;4905824;29;19927;-64
2023/02/19 08:56:21;;;;;;;;;;;7.50;99.90;;;;;;4897595;29;20058;-63
2023/02/19 08:58:53;;;;;;;;;;;7.60;99.90;;;;;;4903002;29;19933;-64
2023/02/19 09:01:20;;;;;;;;;;;7.70;99.90;;;;;;4897610;29;19934;-64
2023/02/19 09:03:52;;;;;;;;;;;7.80;99.90;;;;;;4898176;29;20031;-64
2023/02/19 09:06:24;;;;;;;;;;;8.00;99.90;;;;;;4897292;29;19935;-63
2023/02/19 09:08:55;;;;;;;;;;;8.10;99.90;;;;;;4899880;29;20349;-63
2023/02/19 09:11:22;;;;;;;;;;;8.20;99.90;;;;;;4905917;29;20026;-63
2023/02/19 09:13:55;;;;;;;;;;;8.30;99.90;;;;;;4900915;29;20011;-63
2023/02/19 09:16:26;;;;;;;;;;;8.50;99.90;;;;;;4885995;29;19935;-63
2023/02/19 09:18:58;;;;;;;;;;;8.60;99.90;;;;;;4893621;29;19975;-62
2023/02/19 09:21:30;;;;;;;;;;;8.70;99.90;;;;;;4903761;29;20725;-63
2023/02/19 09:24:02;;;;;;;;;;;8.80;99.90;;;;;;4897376;29;19975;-63
2023/02/19 09:26:30;;;;;;;;;;;9.00;99.90;;;;;;4905350;29;20010;-63
2023/02/19 09:29:02;;;;;;;;;;;9.10;99.90;;;;;;4907939;29;20022;-63
2023/02/19 09:31:35;;;;;;;;;;;9.30;99.90;;;;;;4910460;29;19927;-63
2023/02/19 09:34:07;;;;;;;;;;;9.50;99.90;;;;;;4898577;29;19943;-63
2023/02/19 09:36:39;;;;;;;;;;;9.60;99.90;;;;;;4904951;29;19942;-63
2023/02/19 09:39:11;;;;;;;;;;;9.50;99.90;;;;;;4898314;29;19927;-63
2023/02/19 09:42:09;;;;;;;;;;;9.50;99.90;;;;;;4900218;29;19964;-63
2023/02/19 09:44:43;;;;;;;;;;;9.40;99.90;;;;;;4902589;29;19931;-63
2023/02/19 09:47:17;;;;;;;;;;;9.40;99.90;;;;;;4895642;29;20018;-63
2023/02/19 09:49:53;;;;;;;;;;;9.30;99.90;;;;;;4905386;29;20415;-63
2023/02/19 09:52:36;;;;;;;;;;;9.40;99.90;;;;;;4899807;29;19927;-63
2023/02/19 09:55:29;;;;;;;;;;;9.40;99.90;;;;;;4895558;29;19934;-63
2023/02/19 09:58:06;;;;;;;;;;;9.40;99.90;;;;;;4918895;29;19934;-63
2023/02/19 10:00:38;;;;;;;;;;;9.50;99.90;;;;;;4906684;29;19934;-63
2023/02/19 10:03:13;;;;;;;;;;;9.50;99.90;;;;;;4903080;29;19927;-63
2023/02/19 10:05:45;;;;;;;;;;;9.50;99.90;;;;;;4902054;29;19927;-63
2023/02/19 10:08:18;;;;;;;;;;;9.50;99.90;;;;;;4905377;29;19927;-63
2023/02/19 10:10:51;;;;;;;;;;;9.50;99.90;;;;;;4901263;29;19935;-63
2023/02/19 10:13:28;;;;;;;;;;;9.50;99.90;;;;;;4900672;29;20356;-63
2023/02/19 10:15:56;;;;;;;;;;;9.50;99.90;;;;;;4886583;29;19935;-62
2023/02/19 10:18:30;;;;;;;;;;;9.50;99.90;;;;;;4898239;29;19982;-63
2023/02/19 10:21:02;;;;;;;;;;;9.50;99.90;;;;;;4907335;29;19963;-63
2023/02/19 10:23:34;;;;;;;;;;;9.60;99.90;;;;;;4907623;29;20074;-63
2023/02/19 10:26:06;;;;;;;;;;;9.70;99.90;;;;;;4899500;29;19928;-63
2023/02/19 10:28:34;;;;;;;;;;;9.80;99.90;;;;;;4907491;29;19994;-63
2023/02/19 10:31:02;;;;;;;;;;;9.80;99.90;;;;;;4906030;29;19931;-63
2023/02/19 10:33:46;;;;;;;;;;;9.80;99.90;;;;;;4899638;29;19935;-63
2023/02/19 10:36:24;;;;;;;;;;;9.80;99.90;;;;;;4902653;29;19982;-63
2023/02/19 10:38:56;;;;;;;;;;;9.70;99.90;;;;;;4904915;29;19928;-63
2023/02/19 10:41:29;;;;;;;;;;;9.50;99.90;;;;;;4904271;29;19931;-64
2023/02/19 10:44:01;;;;;;;;;;;9.30;99.90;;;;;;4903979;29;19928;-63
2023/02/19 10:46:35;;;;;;;;;;;9.10;99.90;;;;;;4907641;29;20073;-63
2023/02/19 10:49:19;;;;;;;;;;;9.00;99.90;;;;;;4897051;29;20333;-63
2023/02/19 10:51:53;;;;;;;;;;;9.00;99.90;;;;;;4897470;29;19979;-62
2023/02/19 10:54:27;;;;;;;;;;;9.00;99.90;;;;;;4898065;29;20400;-63
2023/02/19 10:57:14;;;;;;;;;;;9.10;99.90;;;;;;4898285;29;19931;-63
2023/02/19 10:59:56;;;;;;;;;;;9.20;99.90;;;;;;4907650;29;19931;-63
2023/02/19 11:02:29;;;;;;;;;;;9.40;99.90;;;;;;4897629;29;19927;-63
2023/02/19 11:05:01;;;;;;;;;;;9.60;99.90;;;;;;4893444;29;19931;-63
2023/02/19 11:07:34;;;;;;;;;;;9.80;99.90;;;;;;4902497;29;19927;-65
2023/02/19 11:10:17;;;;;;;;;;;10.00;99.90;;;;;;4899891;29;20717;-63
2023/02/19 11:12:50;;;;;;;;;;;10.10;99.90;;;;;;4896862;29;20307;-64
2023/02/19 11:15:35;;;;;;;;;;;10.20;99.90;;;;;;4906049;29;19955;-63
2023/02/19 11:18:11;;;;;;;;;;;10.20;99.90;;;;;;4907234;29;20396;-63
2023/02/19 11:20:46;;;;;;;;;;;10.10;99.90;;;;;;4899382;29;19928;-62
2023/02/19 11:23:21;;;;;;;;;;;10.00;99.90;;;;;;4908034;29;19994;-64
2023/02/19 11:25:54;;;;;;;;;;;10.00;99.90;;;;;;4912297;29;19933;-63
2023/02/19 11:28:37;;;;;;;;;;;10.00;99.90;;;;;;4912401;29;19931;-63
2023/02/19 11:31:18;;;;;;;;;;;10.00;99.90;;;;;;4900398;29;19927;-63
2023/02/19 11:33:56;;;;;;;;;;;10.00;99.90;;;;;;4898365;29;19938;-63
2023/02/19 11:36:28;;;;;;;;;;;10.00;99.90;;;;;;4900073;29;19998;-63
2023/02/19 11:39:15;;;;;;;;;;;9.80;99.90;;;;;;4885106;29;19934;-63
2023/02/19 11:41:49;;;;;;;;;;;9.60;99.90;;;;;;4896268;29;19938;-63
2023/02/19 11:44:30;;;;;;;;;;;9.10;99.90;;;;;;4896588;29;19954;-63
2023/02/19 11:47:20;;;;;;;;;;;8.80;99.90;;;;;;4904593;29;20309;-63
2023/02/19 11:49:56;;;;;;;;;;;8.70;99.90;;;;;;4894942;29;20460;-63
2023/02/19 11:52:37;;;;;;;;;;;8.50;99.90;;;;;;4900628;29;19931;-62
2023/02/19 11:55:29;;;;;;;;;;;8.50;99.90;;;;;;4906740;29;20021;-63
2023/02/19 11:58:07;;;;;;;;;;;8.60;99.90;;;;;;4910822;29;20404;-63
2023/02/19 12:00:43;;;;;;;;;;;8.60;99.90;;;;;;4886254;29;19935;-63
2023/02/19 12:03:22;;;;;;;;;;;8.80;99.90;;;;;;4909697;29;20014;-63
2023/02/19 12:06:17;;;;;;;;;;;8.90;99.90;;;;;;4911810;29;19931;-63
2023/02/19 12:09:08;;;;;;;;;;;9.10;99.90;;;;;;4917127;29;19966;-63
2023/02/19 12:11:52;;;;;;;;;;;9.20;99.90;;;;;;4907824;29;19944;-62
2023/02/19 12:14:24;;;;;;;;;;;9.20;99.90;;;;;;4901191;29;19927;-63
2023/02/19 12:17:14;;;;;;;;;;;9.20;99.90;;;;;;4909516;29;19938;-63
2023/02/19 12:19:55;;;;;;;;;;;9.30;99.90;;;;;;4899196;29;19934;-63
2023/02/19 12:22:31;;;;;;;;;;;9.40;99.90;;;;;;4913712;29;19927;-63
2023/02/19 12:25:03;;;;;;;;;;;9.40;99.90;;;;;;4903856;29;19928;-63
2023/02/19 12:27:35;;;;;;;;;;;9.50;99.90;;;;;;4909315;29;19928;-63
2023/02/19 12:30:12;;;;;;;;;;;9.50;99.90;;;;;;4902466;29;19943;-62
2023/02/19 12:33:03;;;;;;;;;;;9.50;99.90;;;;;;4904287;29;19938;-63
2023/02/19 12:35:54;;;;;;;;;;;9.40;99.90;;;;;;4898505;29;19935;-63
2023/02/19 12:38:34;;;;;;;;;;;9.10;99.90;;;;;;4904523;29;19979;-63
2023/02/19 12:41:24;;;;;;;;;;;8.90;99.90;;;;;;4908873;29;19931;-63
2023/02/19 12:44:11;;;;;;;;;;;8.80;99.90;;;;;;4900458;29;19938;-63
2023/02/19 12:46:55;;;;;;;;;;;8.70;99.90;;;;;;4903479;29;19928;-63
2023/02/19 12:49:38;;;;;;;;;;;8.70;99.90;;;;;;4912626;29;19935;-63
2023/02/19 12:52:13;;;;;;;;;;;8.70;99.90;;;;;;4899644;29;20482;-63
2023/02/19 12:54:46;;;;;;;;;;;8.80;99.90;;;;;;4908672;29;19935;-63
2023/02/19 12:57:23;;;;;;;;;;;8.90;99.90;;;;;;4896523;29;20285;-63
2023/02/19 13:00:13;;;;;;;;;;;9.00;99.90;;;;;;4899854;29;19928;-63
2023/02/19 13:02:55;;;;;;;;;;;9.10;99.90;;;;;;4907562;29;19931;-63
2023/02/19 13:05:40;;;;;;;;;;;9.00;99.90;;;;;;4900444;29;19934;-63
2023/02/19 13:08:34;;;;;;;;;;;9.10;99.90;;;;;;4900065;29;20389;-63
2023/02/19 13:11:16;;;;;;;;;;;9.10;99.90;;;;;;4901609;29;19939;-63
2023/02/19 13:13:55;;;;;;;;;;;9.10;99.90;;;;;;4897724;29;20032;-62
2023/02/19 13:16:31;;;;;;;;;;;9.20;99.90;;;;;;4901452;29;19928;-63
2023/02/19 13:19:03;;;;;;;;;;;9.20;99.90;;;;;;4894481;29;20408;-63
2023/02/19 13:24:29;;;;;;;;;;;9.20;99.90;;;;;;4907704;29;19927;-63
2023/02/19 13:27:18;;;;;;;;;;;9.20;99.90;;;;;;4911898;29;19931;-63
2023/02/19 13:29:50;;;;;;;;;;;9.30;99.90;;;;;;4915702;29;19935;-63
2023/02/19 13:32:28;;;;;;;;;;;9.50;99.90;;;;;;4905792;29;19938;-63
2023/02/19 13:35:01;;;;;;;;;;;9.40;99.90;;;;;;4909516;29;19939;-63
2023/02/19 13:37:34;;;;;;;;;;;9.40;99.90;;;;;;4912473;29;20373;-63
2023/02/19 13:40:26;;;;;;;;;;;9.50;99.90;;;;;;4902324;29;20468;-63
2023/02/19 13:43:02;;;;;;;;;;;9.50;99.90;;;;;;4900536;29;20557;-63
2023/02/19 13:45:44;;;;;;;;;;;9.50;99.90;;;;;;4901321;29;19979;-63
2023/02/19 13:48:22;;;;;;;;;;;9.40;99.90;;;;;;4903023;29;19927;-63
2023/02/19 13:51:09;;;;;;;;;;;9.40;99.90;;;;;;4895131;29;19935;-63
2023/02/19 13:53:43;;;;;;;;;;;9.40;99.90;;;;;;4877049;29;20313;-63
2023/02/19 13:56:33;;;;;;;;;;;9.50;99.90;;;;;;4900476;29;19934;-63
2023/02/19 13:59:09;;;;;;;;;;;9.50;99.90;;;;;;4904186;29;19992;-63
2023/02/19 14:01:50;;;;;;;;;;;9.40;99.90;;;;;;4902862;29;19963;-63
2023/02/19 14:04:31;;;;;;;;;;;9.40;99.90;;;;;;4900588;29;19931;-63
2023/02/19 14:07:03;;;;;;;;;;;9.40;99.90;;;;;;4919144;29;19936;-63
2023/02/19 14:09:35;;;;;;;;;;;9.50;99.90;;;;;;4893567;29;19936;-63
2023/02/19 14:12:10;;;;;;;;;;;9.50;99.90;;;;;;4906932;29;19928;-63
2023/02/19 14:14:42;;;;;;;;;;;9.60;99.90;;;;;;4894681;29;20346;-63
2023/02/19 14:17:33;;;;;;;;;;;9.60;99.90;;;;;;4899808;29;20013;-63
2023/02/19 14:20:08;;;;;;;;;;;9.70;99.90;;;;;;4904207;29;19942;-63
2023/02/19 14:22:55;;;;;;;;;;;9.80;99.90;;;;;;4896873;29;19938;-64
2023/02/19 14:25:30;;;;;;;;;;;9.80;99.90;;;;;;4901330;29;20389;-63
2023/02/19 14:27:57;;;;;;;;;;;9.80;99.90;;;;;;4908737;29;19928;-63
2023/02/19 14:30:30;;;;;;;;;;;9.70;99.90;;;;;;4900441;29;19939;-63
2023/02/19 14:33:02;;;;;;;;;;;9.80;99.90;;;;;;4903466;29;19942;-63
2023/02/19 14:35:33;;;;;;;;;;;9.80;99.90;;;;;;4903621;29;19937;-63
2023/02/19 14:38:05;;;;;;;;;;;9.80;99.90;;;;;;4922406;29;19932;-63
2023/02/19 14:40:41;;;;;;;;;;;10.00;99.90;;;;;;4900085;29;19927;-63
2023/02/19 14:43:18;;;;;;;;;;;10.00;99.90;;;;;;4899447;29;19928;-63
2023/02/19 14:45:57;;;;;;;;;;;10.10;99.90;;;;;;4895314;29;20392;-63
2023/02/19 14:48:31;;;;;;;;;;;10.20;99.90;;;;;;4902037;29;20420;-63
2023/02/19 14:51:06;;;;;;;;;;;10.10;99.90;;;;;;4901418;29;19931;-63
2023/02/19 14:53:40;;;;;;;;;;;10.10;99.90;;;;;;4892759;29;19928;-63
2023/02/19 14:56:18;;;;;;;;;;;10.10;99.90;;;;;;4899695;29;19983;-63
2023/02/19 14:59:06;;;;;;;;;;;10.20;99.90;;;;;;4896168;29;19928;-63
2023/02/19 15:01:33;;;;;;;;;;;10.10;99.90;;;;;;4907839;29;19931;-63
2023/02/19 15:04:05;;;;;;;;;;;10.00;99.90;;;;;;4916203;29;19931;-63
2023/02/19 15:06:38;;;;;;;;;;;9.80;99.90;;;;;;4908296;29;20448;-63
2023/02/19 15:09:11;;;;;;;;;;;9.60;99.90;;;;;;4909502;29;19938;-63
2023/02/19 15:11:43;;;;;;;;;;;9.60;99.90;;;;;;4906876;29;19931;-63
2023/02/19 15:14:20;;;;;;;;;;;9.50;99.90;;;;;;4902435;29;19931;-63
2023/02/19 15:16:55;;;;;;;;;;;9.40;99.90;;;;;;4895511;29;19935;-63
2023/02/19 15:19:28;;;;;;;;;;;9.40;99.90;;;;;;4907041;29;20384;-63
2023/02/19 15:22:00;;;;;;;;;;;9.40;99.90;;;;;;4913279;29;19933;-63
2023/02/19 15:24:32;;;;;;;;;;;9.30;99.90;;;;;;4912904;29;19927;-63
2023/02/19 15:27:04;;;;;;;;;;;9.30;99.90;;;;;;4900069;29;19938;-63
2023/02/19 15:29:43;;;;;;;;;;;9.20;99.90;;;;;;4902632;29;19927;-63
2023/02/19 15:32:24;;;;;;;;;;;9.20;99.90;;;;;;4912807;29;20457;-63
2023/02/19 15:35:00;;;;;;;;;;;9.20;99.90;;;;;;4882169;29;19931;-63
2023/02/19 15:37:34;;;;;;;;;;;9.20;99.90;;;;;;4898986;29;19989;-63
2023/02/19 15:40:07;;;;;;;;;;;9.20;99.90;;;;;;4896662;29;19931;-63